Pawleys Island, South Carolina
Current Conditions -  °F | °C
As of 8:55 AM on Thursday 30 Oct 2014 (Local Time) from KGGE Reporting Station
Broken Clouds Broken Clouds  
Wind Chill: 15°   Ceiling: 6000
Heat Index: 15°   Visibility: 10mi
Dew Point: 12°   Wind: 0mph
Humidity: 82%   Direction: NA
Pressure: 30.01"   Gusts: NA
Location:  33.43°N, 79.12°W
Report Text: KGGE 301255Z AUTO 00000KT 10SM BKN060 15/12 A3001 RMK AO2
Loading
Personal Weather Stations






























Interactive Weather Map
Tropical Storm Tracking
New forecast layout! Learn more

10-Day Weather Forecast

Advertisements
Track Severe Weather on mobile